Terminal Aerodrome Forecast
Issued by NWS Charleston, WV

Current Version | Previous Version | Text Only | Print | Product List | Glossary Off
Versions: 1 2 3 4 5 6 7 8 9 10 11 12 13 14 15 16 17 18 19 20 21 22 23 24 25 26 27 28

000
FTUS41 KRLX 192300
TAFBKW
TAF
KBKW 192324Z 2000/2024 30009KT P6SM SKC
     FM200700 32004KT P6SM BKN015
     FM201100 31004KT P6SM BKN010
     FM201600 31007KT P6SM BKN020
     FM201700 31008KT P6SM BKN250=

USA.gov is the U.S. government's official web portal to all federal, state and local government web resources and services.